Airfield :
LOGIN :

Register | Disclaimer

   EN    FR    IT 

 










Legend :    VFR   Marginal VFR   IFR   Intensive IFR   Very Intensive IFR
Visi :
Ceiling :
>= 8 km
>= 3000ft
5 to 8 km
1000 to 3000 ft
1500m to 5 km
500 to 1000 ft
800 to 1500m
200 to 500 ft
< 800m
< 200 ft
Symbols :   Thunderstorms  Fog  Heavy snow  Heavy precipitations  Wind > 20 kt
SIGMETs :     Misc.  Thunderstorms  Icing  Turbulence  Mountain Waves  Volcanic Ashes







- Airport Elevation : 74 ft
- IATA code : EIN


EHEH - Eindhoven

CURRENT METAR :
  • 270602Z AUTO 04011KT 010V070 9999 FEW014 16/11 Q1028 BLU 03010KT 9999 SCT015 BECMG FEW020

EXPIRED METARs :
  • 270555Z AUTO 04011KT 330V080 9999 FEW015 15/11 Q1028 BLU 02010KT 9999 BKN013 BECMG SCT015
  • 270547Z AUTO 04011KT 010V080 9999 FEW015 15/11 Q1028 BLU 02010KT 9999 BKN013 BECMG SCT015
  • 270525Z AUTO 02010KT 350V050 9999 OVC014 15/12 Q1028 GRN 02010KT 9999 BKN013 BECMG SCT015
  • 270519Z AUTO 02009KT 320V090 9999 OVC014 15/12 Q1028 GRN 02010KT 9999 BKN013 BECMG SCT015
  • 270455Z AUTO 02009KT 350V050 9999 OVC013 15/12 Q1028 GRN 02010KT 9999 BKN012 BECMG BKN015
  • 270425Z AUTO 02010KT 360V060 9999 OVC012 15/12 Q1028 GRN 02010KT 9999 BKN012
  • 270355Z AUTO 02010KT 9999 OVC012 15/12 Q1028 GRN
  • 270325Z AUTO 02011KT 350V050 9999 OVC012 15/12 Q1028 GRN

TAF TAF EHEH
Valid from the 27 at 06:00 until the 28 at 12:00 UTC


270509Z 2706/2812 01008KT 9999 BKN014
BECMG 2707/2709 FEW020
BECMG 2801/2804 BKN012
BECMG 2807/2809 FEW020
No reported NOTAMs for that airfield.



MET'MAP, your aeronautical weather chart ! - Copyright ORBIFLY December 2007 - Disclaimer

ORBIFLY MET'MAP TEAM :

Programming & Development : Alexandra Zaïnal
Concept & Development : Baudouin d'Aumeries
Co-Development & Prog : Marc-Olivier Méhu
Technical & hardware support : Manuel Goepfert

Contact : metmap@orbifly.com




SOURCES & CREDITS :

   NOAA